KUIN/UIN METAR and TAF weather

Enter ICAO airport designator
Station Type Date Time Source
KUIN METAR 2019/05/19 06:54 UTC NOAA

KUIN 190654Z AUTO 20011KT 10SM CLR 17/16 A2959 RMK AO2 SLP015 T01720156


Station Type Date Time Source
KUIN Decoded METAR 2019/05/19 06:54 UTC NOAA

QUINCY MUNI. BALDWIN FIELD, IL, United States (KUIN) 39-56N 091-12W
May 19, 2019 - 02:54 AM EDT / 2019.05.19 0654 UTC
Wind: from the SSW (200 degrees) at 13 MPH (11 KT):0
Visibility: 10 mile(s):0
Sky conditions: clear
Temperature: 63.0 F (17.2 C)
Dew Point: 60.1 F (15.6 C)
Relative Humidity: 90%
Pressure (altimeter): 29.59 in. Hg (1002 hPa)
ob: KUIN 190654Z AUTO 20011KT 10SM CLR 17/16 A2959 RMK AO2 SLP015 T01720156
cycle: 7

Station Type Date Time Source
KUIN TAF 2019/05/19 06:33 UTC NOAA

TAF KUIN 190530Z 1906/2006 17011KT P6SM OVC060
FM190800 18010G19KT 6SM -SHRA VCTS OVC025CB
FM191100 21010G18KT 6SM -SHRA VCTS BKN035CB
FM191300 23014G22KT P6SM BKN045
FM200100 28015KT P6SM SCT060

Example: see airport list